sensor_id;sensor_type;location;lat;lon;timestamp;temperature;humidity
4461;DHT22;2243;48.812;9.232;2022-09-29T00:00:39;9.30;99.90
4461;DHT22;2243;48.812;9.232;2022-09-29T00:03:10;9.40;99.90
4461;DHT22;2243;48.812;9.232;2022-09-29T00:05:46;9.40;99.90
4461;DHT22;2243;48.812;9.232;2022-09-29T00:08:23;9.40;99.90
4461;DHT22;2243;48.812;9.232;2022-09-29T00:10:58;9.20;99.90
4461;DHT22;2243;48.812;9.232;2022-09-29T00:13:28;9.10;99.90
4461;DHT22;2243;48.812;9.232;2022-09-29T00:16:00;9.30;99.90
4461;DHT22;2243;48.812;9.232;2022-09-29T00:18:33;9.40;99.90
4461;DHT22;2243;48.812;9.232;2022-09-29T00:21:13;9.40;99.90
4461;DHT22;2243;48.812;9.232;2022-09-29T00:23:46;9.40;99.90
4461;DHT22;2243;48.812;9.232;2022-09-29T00:26:21;9.30;99.90
4461;DHT22;2243;48.812;9.232;2022-09-29T00:28:56;9.30;99.90
4461;DHT22;2243;48.812;9.232;2022-09-29T00:31:30;9.20;99.90
4461;DHT22;2243;48.812;9.232;2022-09-29T00:34:02;9.20;99.90
4461;DHT22;2243;48.812;9.232;2022-09-29T00:36:33;9.20;99.90
4461;DHT22;2243;48.812;9.232;2022-09-29T00:39:04;9.40;99.90
4461;DHT22;2243;48.812;9.232;2022-09-29T00:41:36;9.50;99.90
4461;DHT22;2243;48.812;9.232;2022-09-29T00:46:50;9.50;99.90
4461;DHT22;2243;48.812;9.232;2022-09-29T00:49:38;9.50;99.90
4461;DHT22;2243;48.812;9.232;2022-09-29T00:54:51;9.40;99.90
4461;DHT22;2243;48.812;9.232;2022-09-29T00:57:29;9.40;99.90
4461;DHT22;2243;48.812;9.232;2022-09-29T01:00:09;9.40;99.90
4461;DHT22;2243;48.812;9.232;2022-09-29T01:02:45;9.40;99.90
4461;DHT22;2243;48.812;9.232;2022-09-29T01:05:29;9.50;99.90
4461;DHT22;2243;48.812;9.232;2022-09-29T01:10:56;9.50;99.90
4461;DHT22;2243;48.812;9.232;2022-09-29T01:13:27;9.50;99.90
4461;DHT22;2243;48.812;9.232;2022-09-29T01:16:00;9.60;99.90
4461;DHT22;2243;48.812;9.232;2022-09-29T01:18:31;9.50;99.90
4461;DHT22;2243;48.812;9.232;2022-09-29T01:36:07;9.40;99.90
4461;DHT22;2243;48.812;9.232;2022-09-29T01:42:21;9.40;99.90
4461;DHT22;2243;48.812;9.232;2022-09-29T01:45:15;9.50;99.90
4461;DHT22;2243;48.812;9.232;2022-09-29T01:47:55;9.50;99.90
4461;DHT22;2243;48.812;9.232;2022-09-29T01:50:39;9.50;99.90
4461;DHT22;2243;48.812;9.232;2022-09-29T01:53:26;9.60;99.90
4461;DHT22;2243;48.812;9.232;2022-09-29T01:56:04;9.50;99.90
4461;DHT22;2243;48.812;9.232;2022-09-29T02:01:18;9.50;99.90
4461;DHT22;2243;48.812;9.232;2022-09-29T02:03:59;9.40;99.90
4461;DHT22;2243;48.812;9.232;2022-09-29T02:06:37;9.60;99.90
4461;DHT22;2243;48.812;9.232;2022-09-29T02:09:19;9.60;99.90
4461;DHT22;2243;48.812;9.232;2022-09-29T02:11:55;9.50;99.90
4461;DHT22;2243;48.812;9.232;2022-09-29T02:14:32;9.60;99.90
4461;DHT22;2243;48.812;9.232;2022-09-29T02:17:26;9.60;99.90
4461;DHT22;2243;48.812;9.232;2022-09-29T02:20:01;9.60;99.90
4461;DHT22;2243;48.812;9.232;2022-09-29T02:22:34;9.60;99.90
4461;DHT22;2243;48.812;9.232;2022-09-29T02:25:07;9.60;99.90
4461;DHT22;2243;48.812;9.232;2022-09-29T02:27:41;9.50;99.90
4461;DHT22;2243;48.812;9.232;2022-09-29T02:30:13;9.70;99.90
4461;DHT22;2243;48.812;9.232;2022-09-29T02:32:46;9.70;99.90
4461;DHT22;2243;48.812;9.232;2022-09-29T02:35:17;9.60;99.90
4461;DHT22;2243;48.812;9.232;2022-09-29T02:38:06;9.70;99.90
4461;DHT22;2243;48.812;9.232;2022-09-29T02:43:54;9.50;99.90
4461;DHT22;2243;48.812;9.232;2022-09-29T02:53:21;9.70;99.90
4461;DHT22;2243;48.812;9.232;2022-09-29T02:56:11;9.60;99.90
4461;DHT22;2243;48.812;9.232;2022-09-29T03:01:53;9.60;99.90
4461;DHT22;2243;48.812;9.232;2022-09-29T03:04:26;9.60;99.90
4461;DHT22;2243;48.812;9.232;2022-09-29T03:06:57;9.70;99.90
4461;DHT22;2243;48.812;9.232;2022-09-29T03:09:28;9.70;99.90
4461;DHT22;2243;48.812;9.232;2022-09-29T03:11:59;9.70;99.90
4461;DHT22;2243;48.812;9.232;2022-09-29T03:14:30;9.80;99.90
4461;DHT22;2243;48.812;9.232;2022-09-29T03:17:01;9.70;99.90
4461;DHT22;2243;48.812;9.232;2022-09-29T03:19:33;9.80;99.90
4461;DHT22;2243;48.812;9.232;2022-09-29T03:22:04;9.80;99.90
4461;DHT22;2243;48.812;9.232;2022-09-29T03:24:34;9.70;99.90
4461;DHT22;2243;48.812;9.232;2022-09-29T03:27:05;9.60;99.90
4461;DHT22;2243;48.812;9.232;2022-09-29T03:29:37;9.50;99.90
4461;DHT22;2243;48.812;9.232;2022-09-29T03:32:08;9.60;99.90
4461;DHT22;2243;48.812;9.232;2022-09-29T03:34:39;9.70;99.90
4461;DHT22;2243;48.812;9.232;2022-09-29T03:37:10;9.70;99.90
4461;DHT22;2243;48.812;9.232;2022-09-29T03:39:41;9.70;99.90
4461;DHT22;2243;48.812;9.232;2022-09-29T03:42:12;9.70;99.90
4461;DHT22;2243;48.812;9.232;2022-09-29T03:44:43;9.60;99.90
4461;DHT22;2243;48.812;9.232;2022-09-29T03:47:14;9.50;99.90
4461;DHT22;2243;48.812;9.232;2022-09-29T03:49:44;9.40;99.90
4461;DHT22;2243;48.812;9.232;2022-09-29T03:52:15;9.40;99.90
4461;DHT22;2243;48.812;9.232;2022-09-29T03:54:46;9.30;99.90
4461;DHT22;2243;48.812;9.232;2022-09-29T03:57:17;9.20;99.90
4461;DHT22;2243;48.812;9.232;2022-09-29T03:59:48;9.10;99.90
4461;DHT22;2243;48.812;9.232;2022-09-29T04:02:19;9.00;99.90
4461;DHT22;2243;48.812;9.232;2022-09-29T04:04:50;9.00;99.90
4461;DHT22;2243;48.812;9.232;2022-09-29T04:07:21;9.30;99.90
4461;DHT22;2243;48.812;9.232;2022-09-29T04:09:52;9.20;99.90
4461;DHT22;2243;48.812;9.232;2022-09-29T04:12:23;9.10;99.90
4461;DHT22;2243;48.812;9.232;2022-09-29T04:14:54;9.00;99.90
4461;DHT22;2243;48.812;9.232;2022-09-29T04:17:25;9.00;99.90
4461;DHT22;2243;48.812;9.232;2022-09-29T04:19:56;9.00;99.90
4461;DHT22;2243;48.812;9.232;2022-09-29T04:22:27;8.90;99.90
4461;DHT22;2243;48.812;9.232;2022-09-29T04:24:58;8.80;99.90
4461;DHT22;2243;48.812;9.232;2022-09-29T04:27:29;8.70;99.90
4461;DHT22;2243;48.812;9.232;2022-09-29T04:30:00;8.60;99.90
4461;DHT22;2243;48.812;9.232;2022-09-29T04:32:31;8.50;99.90
4461;DHT22;2243;48.812;9.232;2022-09-29T04:35:03;8.50;99.90
4461;DHT22;2243;48.812;9.232;2022-09-29T04:37:34;9.40;99.90
4461;DHT22;2243;48.812;9.232;2022-09-29T04:40:06;9.70;99.90
4461;DHT22;2243;48.812;9.232;2022-09-29T04:42:37;9.50;99.90
4461;DHT22;2243;48.812;9.232;2022-09-29T04:45:09;9.20;99.90
4461;DHT22;2243;48.812;9.232;2022-09-29T04:47:40;9.00;99.90
4461;DHT22;2243;48.812;9.232;2022-09-29T04:50:11;8.80;99.90
4461;DHT22;2243;48.812;9.232;2022-09-29T04:52:42;8.60;99.90
4461;DHT22;2243;48.812;9.232;2022-09-29T04:55:13;8.40;99.90
4461;DHT22;2243;48.812;9.232;2022-09-29T04:57:45;8.30;99.90
4461;DHT22;2243;48.812;9.232;2022-09-29T05:00:16;8.30;99.90
4461;DHT22;2243;48.812;9.232;2022-09-29T05:02:47;8.30;99.90
4461;DHT22;2243;48.812;9.232;2022-09-29T05:05:19;8.30;99.90
4461;DHT22;2243;48.812;9.232;2022-09-29T05:07:50;8.30;99.90
4461;DHT22;2243;48.812;9.232;2022-09-29T05:10:21;8.30;99.90
4461;DHT22;2243;48.812;9.232;2022-09-29T05:12:52;8.20;99.90
4461;DHT22;2243;48.812;9.232;2022-09-29T05:15:23;8.20;99.90
4461;DHT22;2243;48.812;9.232;2022-09-29T05:17:55;8.30;99.90
4461;DHT22;2243;48.812;9.232;2022-09-29T05:20:30;8.30;99.90
4461;DHT22;2243;48.812;9.232;2022-09-29T05:23:14;8.30;99.90
4461;DHT22;2243;48.812;9.232;2022-09-29T05:25:45;8.30;99.90
4461;DHT22;2243;48.812;9.232;2022-09-29T05:28:16;8.30;99.90
4461;DHT22;2243;48.812;9.232;2022-09-29T05:30:47;8.40;99.90
4461;DHT22;2243;48.812;9.232;2022-09-29T05:33:18;8.40;99.90
4461;DHT22;2243;48.812;9.232;2022-09-29T05:35:49;8.40;99.90
4461;DHT22;2243;48.812;9.232;2022-09-29T05:38:19;8.30;99.90
4461;DHT22;2243;48.812;9.232;2022-09-29T05:40:52;8.20;99.90
4461;DHT22;2243;48.812;9.232;2022-09-29T05:43:23;8.30;99.90
4461;DHT22;2243;48.812;9.232;2022-09-29T05:46:02;8.40;99.90
4461;DHT22;2243;48.812;9.232;2022-09-29T05:48:34;8.40;99.90
4461;DHT22;2243;48.812;9.232;2022-09-29T05:51:10;8.40;99.90
4461;DHT22;2243;48.812;9.232;2022-09-29T05:53:51;8.40;99.90
4461;DHT22;2243;48.812;9.232;2022-09-29T05:56:24;8.30;99.90
4461;DHT22;2243;48.812;9.232;2022-09-29T05:58:55;8.40;99.90
4461;DHT22;2243;48.812;9.232;2022-09-29T06:01:26;8.40;99.90
4461;DHT22;2243;48.812;9.232;2022-09-29T06:03:58;8.40;99.90
4461;DHT22;2243;48.812;9.232;2022-09-29T06:06:29;8.40;99.90
4461;DHT22;2243;48.812;9.232;2022-09-29T06:09:00;8.40;99.90
4461;DHT22;2243;48.812;9.232;2022-09-29T06:11:31;8.40;99.90
4461;DHT22;2243;48.812;9.232;2022-09-29T06:14:02;8.40;99.90
4461;DHT22;2243;48.812;9.232;2022-09-29T06:16:33;8.50;99.90
4461;DHT22;2243;48.812;9.232;2022-09-29T06:19:04;8.50;99.90
4461;DHT22;2243;48.812;9.232;2022-09-29T06:21:35;8.60;99.90
4461;DHT22;2243;48.812;9.232;2022-09-29T06:24:07;8.70;99.90
4461;DHT22;2243;48.812;9.232;2022-09-29T06:26:38;8.70;99.90
4461;DHT22;2243;48.812;9.232;2022-09-29T06:29:09;8.80;99.90
4461;DHT22;2243;48.812;9.232;2022-09-29T06:31:40;8.90;99.90
4461;DHT22;2243;48.812;9.232;2022-09-29T06:34:12;8.90;99.90
4461;DHT22;2243;48.812;9.232;2022-09-29T06:36:43;8.90;99.90
4461;DHT22;2243;48.812;9.232;2022-09-29T06:39:33;8.90;99.90
4461;DHT22;2243;48.812;9.232;2022-09-29T06:42:04;8.90;99.90
4461;DHT22;2243;48.812;9.232;2022-09-29T06:44:35;9.00;99.90
4461;DHT22;2243;48.812;9.232;2022-09-29T06:47:06;9.00;99.90
4461;DHT22;2243;48.812;9.232;2022-09-29T06:49:37;8.90;99.90
4461;DHT22;2243;48.812;9.232;2022-09-29T06:52:08;8.90;99.90
4461;DHT22;2243;48.812;9.232;2022-09-29T06:54:50;9.10;99.90
4461;DHT22;2243;48.812;9.232;2022-09-29T06:57:21;9.20;99.90
4461;DHT22;2243;48.812;9.232;2022-09-29T06:59:52;9.30;99.90
4461;DHT22;2243;48.812;9.232;2022-09-29T07:02:23;9.20;99.90
4461;DHT22;2243;48.812;9.232;2022-09-29T07:04:54;9.10;99.90
4461;DHT22;2243;48.812;9.232;2022-09-29T07:07:25;9.10;99.90
4461;DHT22;2243;48.812;9.232;2022-09-29T07:09:56;9.00;99.90
4461;DHT22;2243;48.812;9.232;2022-09-29T07:12:26;9.10;99.90
4461;DHT22;2243;48.812;9.232;2022-09-29T07:14:57;9.30;99.90
4461;DHT22;2243;48.812;9.232;2022-09-29T07:17:28;9.40;99.90
4461;DHT22;2243;48.812;9.232;2022-09-29T07:19:59;9.50;99.90
4461;DHT22;2243;48.812;9.232;2022-09-29T07:22:30;9.60;99.90
4461;DHT22;2243;48.812;9.232;2022-09-29T07:25:02;9.60;99.90
4461;DHT22;2243;48.812;9.232;2022-09-29T07:27:33;9.60;99.90
4461;DHT22;2243;48.812;9.232;2022-09-29T07:30:05;9.50;99.90
4461;DHT22;2243;48.812;9.232;2022-09-29T07:32:37;9.60;99.90
4461;DHT22;2243;48.812;9.232;2022-09-29T07:35:08;9.70;99.90
4461;DHT22;2243;48.812;9.232;2022-09-29T07:37:39;9.70;99.90
4461;DHT22;2243;48.812;9.232;2022-09-29T07:40:10;9.80;99.90
4461;DHT22;2243;48.812;9.232;2022-09-29T07:42:41;9.80;99.90
4461;DHT22;2243;48.812;9.232;2022-09-29T07:45:12;9.90;99.90
4461;DHT22;2243;48.812;9.232;2022-09-29T07:47:43;10.10;99.90
4461;DHT22;2243;48.812;9.232;2022-09-29T07:50:14;10.30;99.90
4461;DHT22;2243;48.812;9.232;2022-09-29T07:52:49;10.30;99.90
4461;DHT22;2243;48.812;9.232;2022-09-29T07:55:21;10.10;99.90
4461;DHT22;2243;48.812;9.232;2022-09-29T07:57:53;10.00;99.90
4461;DHT22;2243;48.812;9.232;2022-09-29T08:00:24;10.10;99.90
4461;DHT22;2243;48.812;9.232;2022-09-29T08:02:58;10.30;99.90
4461;DHT22;2243;48.812;9.232;2022-09-29T08:05:30;10.40;99.90
4461;DHT22;2243;48.812;9.232;2022-09-29T08:08:03;10.50;99.90
4461;DHT22;2243;48.812;9.232;2022-09-29T08:10:34;10.50;99.90
4461;DHT22;2243;48.812;9.232;2022-09-29T08:13:20;10.60;99.90
4461;DHT22;2243;48.812;9.232;2022-09-29T08:15:57;10.70;99.90
4461;DHT22;2243;48.812;9.232;2022-09-29T08:18:29;10.70;99.90
4461;DHT22;2243;48.812;9.232;2022-09-29T08:21:01;10.80;99.90
4461;DHT22;2243;48.812;9.232;2022-09-29T08:23:35;10.90;99.90
4461;DHT22;2243;48.812;9.232;2022-09-29T08:26:12;11.00;99.90
4461;DHT22;2243;48.812;9.232;2022-09-29T08:28:45;11.00;99.90
4461;DHT22;2243;48.812;9.232;2022-09-29T08:31:19;10.90;99.90
4461;DHT22;2243;48.812;9.232;2022-09-29T08:33:52;10.90;99.90
4461;DHT22;2243;48.812;9.232;2022-09-29T08:36:23;11.00;99.90
4461;DHT22;2243;48.812;9.232;2022-09-29T08:38:56;11.40;99.90
4461;DHT22;2243;48.812;9.232;2022-09-29T08:47:34;11.60;99.90
4461;DHT22;2243;48.812;9.232;2022-09-29T08:51:01;11.70;99.90
4461;DHT22;2243;48.812;9.232;2022-09-29T08:53:37;11.70;99.90
4461;DHT22;2243;48.812;9.232;2022-09-29T08:56:15;12.00;99.90
4461;DHT22;2243;48.812;9.232;2022-09-29T08:58:46;12.00;99.90
4461;DHT22;2243;48.812;9.232;2022-09-29T09:01:31;12.10;99.90
4461;DHT22;2243;48.812;9.232;2022-09-29T09:07:23;12.10;99.90
4461;DHT22;2243;48.812;9.232;2022-09-29T09:10:30;12.00;99.90
4461;DHT22;2243;48.812;9.232;2022-09-29T09:13:30;12.20;99.90
4461;DHT22;2243;48.812;9.232;2022-09-29T09:16:30;12.40;99.90
4461;DHT22;2243;48.812;9.232;2022-09-29T09:25:22;12.70;99.90
4461;DHT22;2243;48.812;9.232;2022-09-29T09:33:56;12.90;99.90
4461;DHT22;2243;48.812;9.232;2022-09-29T09:37:09;13.00;99.90
4461;DHT22;2243;48.812;9.232;2022-09-29T09:39:56;13.10;99.90
4461;DHT22;2243;48.812;9.232;2022-09-29T09:42:41;13.20;99.90
4461;DHT22;2243;48.812;9.232;2022-09-29T09:45:32;13.30;99.90
4461;DHT22;2243;48.812;9.232;2022-09-29T09:48:23;13.20;99.90
4461;DHT22;2243;48.812;9.232;2022-09-29T09:51:37;13.10;99.90
4461;DHT22;2243;48.812;9.232;2022-09-29T09:54:37;13.10;99.90
4461;DHT22;2243;48.812;9.232;2022-09-29T10:00:21;13.20;99.90
4461;DHT22;2243;48.812;9.232;2022-09-29T10:02:56;13.20;99.90
4461;DHT22;2243;48.812;9.232;2022-09-29T10:05:42;13.20;99.90
4461;DHT22;2243;48.812;9.232;2022-09-29T10:10:59;13.20;99.90
4461;DHT22;2243;48.812;9.232;2022-09-29T10:13:31;13.20;99.90
4461;DHT22;2243;48.812;9.232;2022-09-29T10:16:14;13.20;99.90
4461;DHT22;2243;48.812;9.232;2022-09-29T10:18:49;13.20;99.90
4461;DHT22;2243;48.812;9.232;2022-09-29T10:21:40;13.30;99.90
4461;DHT22;2243;48.812;9.232;2022-09-29T10:24:27;13.50;99.90
4461;DHT22;2243;48.812;9.232;2022-09-29T10:27:00;13.40;99.90
4461;DHT22;2243;48.812;9.232;2022-09-29T10:29:43;13.40;99.90
4461;DHT22;2243;48.812;9.232;2022-09-29T10:32:24;13.70;99.90
4461;DHT22;2243;48.812;9.232;2022-09-29T10:38:05;14.00;99.90
4461;DHT22;2243;48.812;9.232;2022-09-29T10:40:57;14.20;99.90
4461;DHT22;2243;48.812;9.232;2022-09-29T10:43:37;14.40;99.90
4461;DHT22;2243;48.812;9.232;2022-09-29T10:49:26;15.00;99.90
4461;DHT22;2243;48.812;9.232;2022-09-29T10:52:02;15.30;99.90
4461;DHT22;2243;48.812;9.232;2022-09-29T10:54:37;15.40;99.90
4461;DHT22;2243;48.812;9.232;2022-09-29T10:57:12;15.60;99.90
4461;DHT22;2243;48.812;9.232;2022-09-29T10:59:47;15.90;99.90
4461;DHT22;2243;48.812;9.232;2022-09-29T11:05:18;16.30;99.90
4461;DHT22;2243;48.812;9.232;2022-09-29T11:07:52;16.20;99.90
4461;DHT22;2243;48.812;9.232;2022-09-29T11:10:35;16.40;99.90
4461;DHT22;2243;48.812;9.232;2022-09-29T11:16:11;16.60;99.90
4461;DHT22;2243;48.812;9.232;2022-09-29T11:18:49;16.30;99.70
4461;DHT22;2243;48.812;9.232;2022-09-29T11:21:38;16.60;99.90
4461;DHT22;2243;48.812;9.232;2022-09-29T11:27:57;15.90;99.90
4461;DHT22;2243;48.812;9.232;2022-09-29T11:30:59;16.00;99.90
4461;DHT22;2243;48.812;9.232;2022-09-29T11:33:39;16.10;99.90
4461;DHT22;2243;48.812;9.232;2022-09-29T11:36:56;15.70;99.90
4461;DHT22;2243;48.812;9.232;2022-09-29T11:39:43;15.70;99.90
4461;DHT22;2243;48.812;9.232;2022-09-29T11:45:10;15.90;99.90
4461;DHT22;2243;48.812;9.232;2022-09-29T11:54:14;16.00;99.70
4461;DHT22;2243;48.812;9.232;2022-09-29T12:12:07;16.10;98.80
4461;DHT22;2243;48.812;9.232;2022-09-29T12:18:23;16.30;98.40
4461;DHT22;2243;48.812;9.232;2022-09-29T12:20:57;16.20;98.50
4461;DHT22;2243;48.812;9.232;2022-09-29T12:23:29;16.10;97.60
4461;DHT22;2243;48.812;9.232;2022-09-29T12:28:44;15.60;98.10
4461;DHT22;2243;48.812;9.232;2022-09-29T12:31:33;15.70;98.00
4461;DHT22;2243;48.812;9.232;2022-09-29T12:34:20;15.70;98.60
4461;DHT22;2243;48.812;9.232;2022-09-29T12:37:00;15.80;97.90
4461;DHT22;2243;48.812;9.232;2022-09-29T12:42:57;15.80;97.90
4461;DHT22;2243;48.812;9.232;2022-09-29T12:48:49;15.70;98.10
4461;DHT22;2243;48.812;9.232;2022-09-29T12:51:34;15.60;98.00
4461;DHT22;2243;48.812;9.232;2022-09-29T12:54:11;15.60;98.10
4461;DHT22;2243;48.812;9.232;2022-09-29T13:00:00;15.60;98.00
4461;DHT22;2243;48.812;9.232;2022-09-29T13:12:21;16.10;97.50
4461;DHT22;2243;48.812;9.232;2022-09-29T13:15:26;16.10;97.10
4461;DHT22;2243;48.812;9.232;2022-09-29T13:21:28;16.00;96.70
4461;DHT22;2243;48.812;9.232;2022-09-29T13:24:20;15.90;97.10
4461;DHT22;2243;48.812;9.232;2022-09-29T13:29:49;15.70;97.20
4461;DHT22;2243;48.812;9.232;2022-09-29T13:32:24;15.70;97.30
4461;DHT22;2243;48.812;9.232;2022-09-29T13:34:58;15.70;97.10
4461;DHT22;2243;48.812;9.232;2022-09-29T13:37:45;15.60;97.40
4461;DHT22;2243;48.812;9.232;2022-09-29T13:40:24;15.60;97.60
4461;DHT22;2243;48.812;9.232;2022-09-29T13:42:58;15.40;97.80
4461;DHT22;2243;48.812;9.232;2022-09-29T13:50:51;15.20;99.70
4461;DHT22;2243;48.812;9.232;2022-09-29T13:58:55;15.30;99.50
4461;DHT22;2243;48.812;9.232;2022-09-29T14:01:35;15.30;99.90
4461;DHT22;2243;48.812;9.232;2022-09-29T14:07:36;15.30;99.70
4461;DHT22;2243;48.812;9.232;2022-09-29T14:10:20;15.20;99.90
4461;DHT22;2243;48.812;9.232;2022-09-29T14:13:10;15.20;99.40
4461;DHT22;2243;48.812;9.232;2022-09-29T14:16:00;15.00;99.90
4461;DHT22;2243;48.812;9.232;2022-09-29T14:19:15;15.00;99.90
4461;DHT22;2243;48.812;9.232;2022-09-29T14:21:58;14.90;99.90
4461;DHT22;2243;48.812;9.232;2022-09-29T14:35:37;14.80;99.80
4461;DHT22;2243;48.812;9.232;2022-09-29T14:40:55;14.80;99.90
4461;DHT22;2243;48.812;9.232;2022-09-29T14:44:00;14.70;99.90
4461;DHT22;2243;48.812;9.232;2022-09-29T14:58:24;14.70;99.90
4461;DHT22;2243;48.812;9.232;2022-09-29T15:01:27;14.70;99.90
4461;DHT22;2243;48.812;9.232;2022-09-29T15:04:14;14.70;99.90
4461;DHT22;2243;48.812;9.232;2022-09-29T15:06:48;14.60;99.90
4461;DHT22;2243;48.812;9.232;2022-09-29T15:09:24;14.70;99.90
4461;DHT22;2243;48.812;9.232;2022-09-29T15:11:56;14.70;99.90
4461;DHT22;2243;48.812;9.232;2022-09-29T15:14:34;14.60;99.90
4461;DHT22;2243;48.812;9.232;2022-09-29T15:17:33;14.60;99.90
4461;DHT22;2243;48.812;9.232;2022-09-29T15:25:55;14.60;99.90
4461;DHT22;2243;48.812;9.232;2022-09-29T15:28:36;14.50;99.90
4461;DHT22;2243;48.812;9.232;2022-09-29T15:31:16;14.50;99.90
4461;DHT22;2243;48.812;9.232;2022-09-29T15:33:49;14.60;99.90
4461;DHT22;2243;48.812;9.232;2022-09-29T15:36:22;14.60;99.90
4461;DHT22;2243;48.812;9.232;2022-09-29T15:38:59;14.50;99.90
4461;DHT22;2243;48.812;9.232;2022-09-29T15:41:33;14.50;99.90
4461;DHT22;2243;48.812;9.232;2022-09-29T15:44:16;14.40;99.90
4461;DHT22;2243;48.812;9.232;2022-09-29T15:46:51;14.50;99.90
4461;DHT22;2243;48.812;9.232;2022-09-29T15:49:28;14.50;99.90
4461;DHT22;2243;48.812;9.232;2022-09-29T15:52:03;14.50;99.90
4461;DHT22;2243;48.812;9.232;2022-09-29T15:54:57;14.60;99.90
4461;DHT22;2243;48.812;9.232;2022-09-29T16:03:11;14.80;99.90
4461;DHT22;2243;48.812;9.232;2022-09-29T16:06:05;14.70;99.90
4461;DHT22;2243;48.812;9.232;2022-09-29T16:08:50;14.70;99.90
4461;DHT22;2243;48.812;9.232;2022-09-29T16:11:29;14.60;99.90
4461;DHT22;2243;48.812;9.232;2022-09-29T16:16:42;14.60;99.90
4461;DHT22;2243;48.812;9.232;2022-09-29T16:19:28;14.50;99.90
4461;DHT22;2243;48.812;9.232;2022-09-29T16:22:03;14.50;99.90
4461;DHT22;2243;48.812;9.232;2022-09-29T16:24:49;14.40;99.90
4461;DHT22;2243;48.812;9.232;2022-09-29T16:27:59;14.40;99.90
4461;DHT22;2243;48.812;9.232;2022-09-29T16:30:33;14.30;99.90
4461;DHT22;2243;48.812;9.232;2022-09-29T16:33:22;14.30;99.90
4461;DHT22;2243;48.812;9.232;2022-09-29T16:38:43;14.20;99.90
4461;DHT22;2243;48.812;9.232;2022-09-29T16:43:50;14.10;99.90
4461;DHT22;2243;48.812;9.232;2022-09-29T16:46:21;14.10;99.90
4461;DHT22;2243;48.812;9.232;2022-09-29T16:48:53;14.00;99.90
4461;DHT22;2243;48.812;9.232;2022-09-29T16:51:24;14.00;99.90
4461;DHT22;2243;48.812;9.232;2022-09-29T16:54:15;13.90;99.90
4461;DHT22;2243;48.812;9.232;2022-09-29T16:57:30;13.80;99.90
4461;DHT22;2243;48.812;9.232;2022-09-29T17:00:11;13.80;99.90
4461;DHT22;2243;48.812;9.232;2022-09-29T17:02:42;13.70;99.90
4461;DHT22;2243;48.812;9.232;2022-09-29T17:05:13;13.70;99.90
4461;DHT22;2243;48.812;9.232;2022-09-29T17:07:44;13.60;99.90
4461;DHT22;2243;48.812;9.232;2022-09-29T17:10:17;13.60;99.90
4461;DHT22;2243;48.812;9.232;2022-09-29T17:12:49;13.50;99.90
4461;DHT22;2243;48.812;9.232;2022-09-29T17:15:21;13.40;99.90
4461;DHT22;2243;48.812;9.232;2022-09-29T17:17:52;13.30;99.90
4461;DHT22;2243;48.812;9.232;2022-09-29T17:20:23;13.20;99.90
4461;DHT22;2243;48.812;9.232;2022-09-29T17:23:00;13.10;99.90
4461;DHT22;2243;48.812;9.232;2022-09-29T17:25:32;13.00;99.90
4461;DHT22;2243;48.812;9.232;2022-09-29T17:28:05;12.90;99.90
4461;DHT22;2243;48.812;9.232;2022-09-29T17:30:44;12.80;99.90
4461;DHT22;2243;48.812;9.232;2022-09-29T17:33:17;12.80;99.90
4461;DHT22;2243;48.812;9.232;2022-09-29T17:35:50;12.80;99.90
4461;DHT22;2243;48.812;9.232;2022-09-29T17:38:25;12.70;99.90
4461;DHT22;2243;48.812;9.232;2022-09-29T17:41:05;12.70;99.90
4461;DHT22;2243;48.812;9.232;2022-09-29T17:43:36;12.70;99.90
4461;DHT22;2243;48.812;9.232;2022-09-29T17:46:08;12.60;99.90
4461;DHT22;2243;48.812;9.232;2022-09-29T17:48:40;12.50;99.90
4461;DHT22;2243;48.812;9.232;2022-09-29T17:51:12;12.40;99.90
4461;DHT22;2243;48.812;9.232;2022-09-29T17:53:47;12.40;99.90
4461;DHT22;2243;48.812;9.232;2022-09-29T17:56:22;12.30;99.90
4461;DHT22;2243;48.812;9.232;2022-09-29T17:58:56;12.30;99.90
4461;DHT22;2243;48.812;9.232;2022-09-29T18:01:27;12.30;99.90
4461;DHT22;2243;48.812;9.232;2022-09-29T18:04:04;12.20;99.90
4461;DHT22;2243;48.812;9.232;2022-09-29T18:06:35;12.10;99.90
4461;DHT22;2243;48.812;9.232;2022-09-29T18:09:16;12.10;99.90
4461;DHT22;2243;48.812;9.232;2022-09-29T18:11:47;12.10;99.90
4461;DHT22;2243;48.812;9.232;2022-09-29T18:14:18;12.00;99.90
4461;DHT22;2243;48.812;9.232;2022-09-29T18:16:49;12.00;99.90
4461;DHT22;2243;48.812;9.232;2022-09-29T18:19:20;12.00;99.90
4461;DHT22;2243;48.812;9.232;2022-09-29T18:21:51;11.90;99.90
4461;DHT22;2243;48.812;9.232;2022-09-29T18:24:22;11.90;99.90
4461;DHT22;2243;48.812;9.232;2022-09-29T18:26:53;11.90;99.90
4461;DHT22;2243;48.812;9.232;2022-09-29T18:29:24;11.80;99.90
4461;DHT22;2243;48.812;9.232;2022-09-29T18:31:55;11.80;99.90
4461;DHT22;2243;48.812;9.232;2022-09-29T18:34:26;11.80;99.90
4461;DHT22;2243;48.812;9.232;2022-09-29T18:37:00;11.70;99.90
4461;DHT22;2243;48.812;9.232;2022-09-29T18:39:31;11.70;99.90
4461;DHT22;2243;48.812;9.232;2022-09-29T18:42:02;11.70;99.90
4461;DHT22;2243;48.812;9.232;2022-09-29T18:44:33;11.60;99.90
4461;DHT22;2243;48.812;9.232;2022-09-29T18:47:09;11.50;99.90
4461;DHT22;2243;48.812;9.232;2022-09-29T18:49:41;11.50;99.90
4461;DHT22;2243;48.812;9.232;2022-09-29T18:52:13;11.40;99.90
4461;DHT22;2243;48.812;9.232;2022-09-29T18:54:44;11.30;99.90
4461;DHT22;2243;48.812;9.232;2022-09-29T18:57:14;11.40;99.90
4461;DHT22;2243;48.812;9.232;2022-09-29T18:59:45;11.30;99.90
4461;DHT22;2243;48.812;9.232;2022-09-29T19:02:18;11.20;99.90
4461;DHT22;2243;48.812;9.232;2022-09-29T19:04:49;11.20;99.90
4461;DHT22;2243;48.812;9.232;2022-09-29T19:07:23;11.10;99.90
4461;DHT22;2243;48.812;9.232;2022-09-29T19:09:54;11.00;99.90
4461;DHT22;2243;48.812;9.232;2022-09-29T19:12:25;10.90;99.90
4461;DHT22;2243;48.812;9.232;2022-09-29T19:14:59;11.00;99.90
4461;DHT22;2243;48.812;9.232;2022-09-29T19:17:31;10.90;99.90
4461;DHT22;2243;48.812;9.232;2022-09-29T19:20:02;11.00;99.90
4461;DHT22;2243;48.812;9.232;2022-09-29T19:22:33;11.00;99.90
4461;DHT22;2243;48.812;9.232;2022-09-29T19:25:17;10.90;99.90
4461;DHT22;2243;48.812;9.232;2022-09-29T19:27:59;10.80;99.90
4461;DHT22;2243;48.812;9.232;2022-09-29T19:30:39;10.80;99.90
4461;DHT22;2243;48.812;9.232;2022-09-29T19:33:14;10.80;99.90
4461;DHT22;2243;48.812;9.232;2022-09-29T19:35:52;10.80;99.90
4461;DHT22;2243;48.812;9.232;2022-09-29T19:38:24;10.70;99.90
4461;DHT22;2243;48.812;9.232;2022-09-29T19:40:55;10.70;99.90
4461;DHT22;2243;48.812;9.232;2022-09-29T19:43:25;10.60;99.90
4461;DHT22;2243;48.812;9.232;2022-09-29T19:45:56;10.50;99.90
4461;DHT22;2243;48.812;9.232;2022-09-29T19:48:27;10.50;99.90
4461;DHT22;2243;48.812;9.232;2022-09-29T19:50:58;10.50;99.90
4461;DHT22;2243;48.812;9.232;2022-09-29T19:53:48;10.50;99.90
4461;DHT22;2243;48.812;9.232;2022-09-29T19:56:19;10.50;99.90
4461;DHT22;2243;48.812;9.232;2022-09-29T19:58:50;10.50;99.90
4461;DHT22;2243;48.812;9.232;2022-09-29T20:01:21;10.50;99.90
4461;DHT22;2243;48.812;9.232;2022-09-29T20:03:52;10.40;99.90
4461;DHT22;2243;48.812;9.232;2022-09-29T20:06:23;10.40;99.90
4461;DHT22;2243;48.812;9.232;2022-09-29T20:08:54;10.30;99.90
4461;DHT22;2243;48.812;9.232;2022-09-29T20:11:25;10.30;99.90
4461;DHT22;2243;48.812;9.232;2022-09-29T20:13:56;10.20;99.90
4461;DHT22;2243;48.812;9.232;2022-09-29T20:16:31;10.10;99.90
4461;DHT22;2243;48.812;9.232;2022-09-29T20:19:05;10.10;99.90
4461;DHT22;2243;48.812;9.232;2022-09-29T20:21:36;10.00;99.90
4461;DHT22;2243;48.812;9.232;2022-09-29T20:24:13;10.00;99.90
4461;DHT22;2243;48.812;9.232;2022-09-29T20:26:47;9.90;99.90
4461;DHT22;2243;48.812;9.232;2022-09-29T20:29:18;9.80;99.90